Time;durP1;ratioP1;P1;durP2;ratioP2;P2;SDS_P1;SDS_P2;PMS_P1;PMS_P2;Temp;Humidity;BMP_temperature;BMP_pressure;BME280_temperature;BME280_humidity;BME280_pressure;Samples;Min_cycle;Max_cycle;Signal;HPM_P1;HPM_P2
2023/06/03 08:56:56;;;;;;;4.65;2.00;;;;;;;17.74;40.22;101921.91;5112948;27;1222085;-71
2023/06/03 08:59:24;;;;;;;7.95;2.10;;;;;;;17.74;39.82;101923.81;5126704;27;20039;-78
2023/06/03 09:01:55;;;;;;;9.23;2.33;;;;;;;17.87;38.86;101934.44;5107898;28;20032;-74
2023/06/03 09:04:21;;;;;;;9.40;2.20;;;;;;;17.83;38.63;101928.66;5110209;28;20020;-71
2023/06/03 09:06:48;;;;;;;6.00;2.10;;;;;;;17.85;38.61;101928.41;5110071;28;20028;-77
2023/06/03 09:09:15;;;;;;;6.30;2.00;;;;;;;17.91;38.63;101934.81;5110646;28;20085;-72
2023/06/03 09:11:43;;;;;;;3.70;1.83;;;;;;;17.95;38.93;101923.13;5108886;28;20035;-76
2023/06/03 09:14:10;;;;;;;6.28;1.75;;;;;;;18.05;38.78;101908.75;5102733;28;20032;-75
2023/06/03 09:16:36;;;;;;;6.05;1.73;;;;;;;18.08;37.64;101923.88;5089672;28;20024;-70
2023/06/03 09:19:02;;;;;;;3.83;1.70;;;;;;;18.09;37.45;101920.88;5092075;28;20047;-69
2023/06/03 09:21:27;;;;;;;7.72;1.88;;;;;;;18.19;37.45;101918.31;5096085;28;20028;-71
2023/06/03 09:23:52;;;;;;;8.45;1.88;;;;;;;18.28;37.30;101934.31;5096098;28;20487;-70
2023/06/03 09:26:18;;;;;;;6.68;1.70;;;;;;;18.32;36.69;101924.53;5090253;28;20473;-71
2023/06/03 09:28:45;;;;;;;8.88;1.80;;;;;;;18.36;36.42;101931.97;5087961;28;20107;-71
2023/06/03 09:31:10;;;;;;;8.70;1.70;;;;;;;18.39;35.87;101925.19;5089302;28;20528;-72
2023/06/03 09:33:36;;;;;;;6.88;1.45;;;;;;;18.41;36.29;101925.75;5102718;28;20031;-71
2023/06/03 09:36:17;;;;;;;7.53;1.60;;;;;;;18.46;35.60;101920.31;5109798;28;20038;-71
2023/06/03 09:38:50;;;;;;;7.07;1.90;;;;;;;18.50;35.14;101921.50;5109813;28;20028;-70
2023/06/03 09:41:17;;;;;;;4.18;1.40;;;;;;;18.52;34.73;101930.28;5108290;28;20360;-72
2023/06/03 09:44:03;;;;;;;3.60;1.30;;;;;;;18.59;36.13;101919.97;5090390;28;20110;-71
2023/06/03 09:46:30;;;;;;;4.80;1.65;;;;;;;18.68;35.32;101930.53;5091926;28;20032;-72
2023/06/03 09:49:16;;;;;;;3.97;1.50;;;;;;;18.76;37.23;101925.41;5107912;28;20153;-71
2023/06/03 09:51:51;;;;;;;5.68;1.60;;;;;;;18.73;35.52;101931.41;5109606;28;20497;-72
2023/06/03 09:54:23;;;;;;;1.70;1.30;;;;;;;18.77;34.68;101935.28;5109461;28;20118;-71
2023/06/03 09:56:49;;;;;;;4.13;1.60;;;;;;;18.72;32.78;101921.53;5109470;28;20044;-70
2023/06/03 09:59:21;;;;;;;4.00;1.58;;;;;;;18.84;33.51;101937.03;5109054;28;20102;-73
2023/06/03 10:01:47;;;;;;;3.78;1.30;;;;;;;18.82;32.66;101934.53;5097025;28;20031;-70
2023/06/03 10:04:24;;;;;;;9.93;2.00;;;;;;;18.90;33.56;101931.41;5109232;28;20031;-71
2023/06/03 10:07:10;;;;;;;4.60;1.67;;;;;;;18.89;33.29;101935.22;5100040;28;20036;-73
2023/06/03 10:09:36;;;;;;;2.45;1.25;;;;;;;18.95;32.16;101923.22;5075214;28;20028;-72
2023/06/03 10:12:02;;;;;;;3.55;1.42;;;;;;;18.97;31.74;101917.47;5075015;28;20082;-75
2023/06/03 10:14:28;;;;;;;4.70;1.50;;;;;;;19.12;31.57;101927.81;5073581;28;20036;-71
2023/06/03 10:17:10;;;;;;;3.08;1.42;;;;;;;19.09;33.29;101923.66;5078645;28;20085;-75
2023/06/03 10:19:38;;;;;;;3.08;1.30;;;;;;;19.26;31.78;101925.50;5082085;28;20036;-74
2023/06/03 10:22:05;;;;;;;3.53;1.50;;;;;;;19.24;30.39;101931.22;5077539;28;20024;-78
2023/06/03 10:24:38;;;;;;;3.33;1.20;;;;;;;19.32;31.45;101923.63;5083900;28;20028;-77
2023/06/03 10:27:04;;;;;;;2.80;1.60;;;;;;;19.40;31.44;101914.94;5094859;28;20028;-81
2023/06/03 10:29:32;;;;;;;2.60;1.38;;;;;;;19.48;30.72;101930.94;5095132;28;20050;-81
2023/06/03 10:32:00;;;;;;;3.60;1.30;;;;;;;19.54;30.90;101918.94;5093397;28;20032;-76
2023/06/03 10:34:28;;;;;;;4.95;1.40;;;;;;;19.60;30.97;101914.31;5082889;28;20034;-79
2023/06/03 10:36:57;;;;;;;4.00;1.25;;;;;;;19.68;30.63;101904.78;5084909;28;20053;-77
2023/06/03 10:39:26;;;;;;;7.68;1.50;;;;;;;19.73;30.24;101915.81;5091954;28;20024;-84
2023/06/03 10:42:05;;;;;;;4.57;1.60;;;;;;;19.84;31.36;101917.59;5089643;28;20457;-76
2023/06/03 10:44:31;;;;;;;3.08;1.05;;;;;;;20.03;30.50;101915.25;5111088;28;20067;-79
2023/06/03 10:47:22;;;;;;;2.72;1.50;;;;;;;20.08;31.44;101907.06;5111923;28;20035;-79
2023/06/03 10:50:13;;;;;;;2.40;1.20;;;;;;;20.19;31.36;101914.28;5094941;28;20034;-81
2023/06/03 10:53:11;;;;;;;2.53;1.30;;;;;;;20.16;30.73;101920.31;5090807;28;20070;-80
2023/06/03 10:55:36;;;;;;;4.72;1.15;;;;;;;;;;5032632;28;20059;-77
2023/06/03 10:58:12;;;;;;;4.23;1.20;;;;;;;20.24;30.51;101916.25;5075280;28;20036;-78
2023/06/03 11:00:59;;;;;;;4.82;1.15;;;;;;;20.27;30.44;101912.97;5089195;28;20063;-77
2023/06/03 11:03:31;;;;;;;3.67;1.27;;;;;;;20.33;29.28;101909.16;5093326;28;20481;-78
2023/06/03 11:06:21;;;;;;;4.15;1.13;;;;;;;20.50;31.15;101914.50;5081917;28;20146;-77
2023/06/03 11:09:00;;;;;;;5.70;1.20;;;;;;;20.62;29.96;101916.19;5092373;28;20051;-77
2023/06/03 11:11:41;;;;;;;1.95;1.08;;;;;;;20.60;29.58;101912.91;5073236;28;20085;-80
2023/06/03 11:14:29;;;;;;;3.27;1.27;;;;;;;20.69;29.93;101903.88;5075232;28;20078;-79
2023/06/03 11:16:57;;;;;;;5.10;1.33;;;;;;;20.79;28.27;101905.03;5079307;28;20298;-77
2023/06/03 11:19:44;;;;;;;5.93;1.23;;;;;;;20.89;27.49;101905.91;5090513;28;20024;-75
2023/06/03 11:22:11;;;;;;;3.83;1.20;;;;;;;21.00;27.05;101917.78;5086771;28;20088;-78
2023/06/03 11:24:39;;;;;;;1.90;0.90;;;;;;;21.00;27.27;101914.19;5077094;28;20057;-75
2023/06/03 11:29:49;;;;;;;3.28;1.15;;;;;;;21.19;28.27;101909.03;5092652;28;20043;-76
2023/06/03 11:32:20;;;;;;;3.03;1.30;;;;;;;21.36;27.58;101908.78;5089350;28;20065;-76
2023/06/03 11:34:47;;;;;;;6.28;1.33;;;;;;;21.39;27.57;101909.09;5093704;28;20032;-76
2023/06/03 11:37:19;;;;;;;4.05;1.00;;;;;;;21.42;27.08;101916.81;5091339;28;20025;-77
2023/06/03 11:39:57;;;;;;;6.00;1.33;;;;;;;21.40;27.17;101915.41;5091012;28;20131;-73
2023/06/03 11:42:22;;;;;;;3.22;1.20;;;;;;;21.32;26.17;101911.28;5093514;28;20028;-74
2023/06/03 11:44:47;;;;;;;2.60;1.50;;;;;;;21.27;26.64;101911.25;5093497;28;20039;-73
2023/06/03 11:47:12;;;;;;;5.90;1.40;;;;;;;21.34;26.55;101906.31;5093733;28;20107;-73
2023/06/03 11:49:39;;;;;;;2.40;1.08;;;;;;;21.40;27.11;101907.16;5093618;28;20032;-74
2023/06/03 11:52:05;;;;;;;5.82;1.30;;;;;;;21.56;27.58;101902.53;5092022;28;20095;-74
2023/06/03 11:54:31;;;;;;;4.40;1.02;;;;;;;21.77;27.10;101903.38;5093414;28;20064;-73
2023/06/03 11:56:58;;;;;;;2.10;0.85;;;;;;;21.72;26.62;101884.91;5092731;28;20102;-74
2023/06/03 11:59:35;;;;;;;4.07;1.00;;;;;;;21.76;27.10;101910.81;5072868;28;20028;-73
2023/06/03 12:02:03;;;;;;;4.82;1.33;;;;;;;21.82;27.31;101899.81;5070870;28;20099;-74
2023/06/03 12:04:30;;;;;;;2.75;1.30;;;;;;;21.83;26.80;101890.41;5073021;28;20024;-74
2023/06/03 12:06:56;;;;;;;3.50;1.20;;;;;;;21.95;26.67;101894.56;5072261;28;20025;-74
2023/06/03 12:09:24;;;;;;;4.15;1.10;;;;;;;22.07;26.68;101897.03;5072551;28;20568;-74
2023/06/03 12:11:49;;;;;;;2.53;1.40;;;;;;;22.13;26.37;101895.91;5072652;28;20048;-74
2023/06/03 12:14:26;;;;;;;4.53;1.40;;;;;;;22.19;27.50;101895.91;5072729;28;20060;-74
2023/06/03 12:16:53;;;;;;;5.55;1.40;;;;;;;22.23;27.45;101877.69;5072264;28;20032;-74
2023/06/03 12:19:19;;;;;;;1.75;1.17;;;;;;;22.34;27.99;101884.84;5091545;28;20036;-74
2023/06/03 12:21:57;;;;;;;2.60;1.63;;;;;;;22.27;27.25;101885.13;5092522;28;20043;-74
2023/06/03 12:24:30;;;;;;;4.10;1.35;;;;;;;22.40;26.81;101889.25;5072391;28;20031;-74
2023/06/03 12:26:56;;;;;;;4.53;1.45;;;;;;;22.50;26.72;101896.69;5072858;28;20520;-73
2023/06/03 12:29:24;;;;;;;7.32;1.30;;;;;;;22.58;27.15;101895.28;5071047;28;20135;-74
2023/06/03 12:32:02;;;;;;;4.72;1.50;;;;;;;22.60;27.92;101895.81;5072467;28;20032;-74
2023/06/03 12:34:34;;;;;;;3.20;1.45;;;;;;;22.71;27.34;101891.94;5071379;28;20115;-74
2023/06/03 12:37:01;;;;;;;4.07;1.42;;;;;;;22.77;27.81;101890.78;5075196;28;20051;-74
2023/06/03 12:39:46;;;;;;;5.00;1.30;;;;;;;22.85;28.22;101888.56;5092817;28;20032;-74
2023/06/03 12:42:12;;;;;;;7.20;1.75;;;;;;;22.88;27.03;101897.09;5091278;28;20077;-73
2023/06/03 12:44:48;;;;;;;4.03;1.48;;;;;;;22.97;27.11;101892.63;5092554;28;20406;-73
2023/06/03 12:47:15;;;;;;;6.45;1.40;;;;;;;22.96;26.48;101881.88;5075147;28;20037;-73
2023/06/03 12:49:41;;;;;;;3.30;1.45;;;;;;;23.00;27.16;101891.25;5072553;28;20380;-73
2023/06/03 12:52:18;;;;;;;3.78;1.60;;;;;;;23.13;26.82;101887.91;5070892;28;20033;-73
2023/06/03 12:54:46;;;;;;;2.47;1.30;;;;;;;23.18;26.39;101876.81;5070922;28;20368;-73
2023/06/03 12:57:11;;;;;;;2.58;1.38;;;;;;;23.15;26.53;101880.13;5075582;28;20038;-73
2023/06/03 12:59:58;;;;;;;5.65;1.50;;;;;;;23.15;27.45;101876.56;5072349;28;20111;-73
2023/06/03 13:02:24;;;;;;;6.32;1.95;;;;;;;23.18;26.97;101867.72;5070181;28;20032;-73
2023/06/03 13:04:49;;;;;;;5.32;1.60;;;;;;;23.34;27.32;101869.25;5072391;28;20226;-75
2023/06/03 13:07:14;;;;;;;5.22;1.58;;;;;;;23.32;26.68;101870.66;5072392;28;20451;-78
2023/06/03 13:09:40;;;;;;;7.70;1.60;;;;;;;23.38;26.50;101875.03;5072563;28;20059;-78
2023/06/03 13:12:06;;;;;;;4.28;1.50;;;;;;;23.44;26.94;101870.28;5071088;28;20036;-79
2023/06/03 13:14:34;;;;;;;2.40;1.42;;;;;;;23.47;25.94;101869.72;5071293;28;20032;-80
2023/06/03 13:17:00;;;;;;;3.97;1.67;;;;;;;23.50;25.87;101871.91;5080485;28;20107;-78
2023/06/03 13:19:26;;;;;;;5.03;1.55;;;;;;;23.57;26.20;101871.56;5089335;28;20535;-77
2023/06/03 13:21:52;;;;;;;5.65;1.40;;;;;;;23.54;26.05;101865.50;5091596;28;20055;-77
2023/06/03 13:24:17;;;;;;;2.38;1.40;;;;;;;23.66;26.82;101856.84;5088404;28;20460;-78
2023/06/03 13:26:42;;;;;;;4.55;1.42;;;;;;;23.74;25.17;101866.47;5090941;28;20093;-76
2023/06/03 13:29:08;;;;;;;3.38;1.40;;;;;;;23.65;25.27;101857.16;5079857;28;20536;-77
2023/06/03 13:31:33;;;;;;;6.97;1.73;;;;;;;23.66;25.19;101853.28;5071508;28;20055;-76
2023/06/03 13:33:58;;;;;;;5.53;1.60;;;;;;;23.71;25.60;101864.28;5072146;28;20498;-78
2023/06/03 13:36:24;;;;;;;7.35;1.67;;;;;;;23.71;25.74;101855.97;5070695;28;20085;-75
2023/06/03 13:38:49;;;;;;;6.50;1.40;;;;;;;23.71;26.04;101873.38;5078312;28;20265;-77
2023/06/03 13:41:15;;;;;;;3.17;1.50;;;;;;;23.79;26.82;101852.59;5077234;28;20093;-75
2023/06/03 13:43:41;;;;;;;4.55;1.33;;;;;;;23.93;25.98;101854.69;5085477;28;20141;-76
2023/06/03 13:46:08;;;;;;;2.63;1.20;;;;;;;24.09;25.82;101853.44;5095855;28;20406;-75
2023/06/03 13:48:33;;;;;;;8.02;1.90;;;;;;;24.13;26.19;101851.75;5092832;28;20032;-77
2023/06/03 13:50:59;;;;;;;2.60;1.25;;;;;;;24.16;25.14;101851.16;5080616;28;20482;-75
2023/06/03 13:53:25;;;;;;;6.30;1.48;;;;;;;24.12;24.49;101858.38;5086864;28;20029;-75
2023/06/03 13:55:52;;;;;;;2.63;1.42;;;;;;;23.97;24.42;101853.00;5073717;28;20106;-75
2023/06/03 13:58:18;;;;;;;7.82;1.48;;;;;;;23.85;25.07;101851.47;5074010;28;20168;-74
2023/06/03 14:00:43;;;;;;;1.58;1.30;;;;;;;23.93;25.35;101843.66;5071621;28;20253;-74
2023/06/03 14:03:09;;;;;;;3.42;1.48;;;;;;;24.01;25.20;101840.25;5074921;28;20471;-75
2023/06/03 14:05:35;;;;;;;3.90;1.52;;;;;;;24.12;25.40;101843.75;5082281;28;20386;-72
2023/06/03 14:08:00;;;;;;;5.18;1.60;;;;;;;24.12;24.74;101827.97;5084863;28;20112;-74
2023/06/03 14:10:25;;;;;;;5.47;1.45;;;;;;;24.11;24.55;101842.94;5075966;28;20054;-72
2023/06/03 14:12:51;;;;;;;4.95;1.70;;;;;;;24.11;24.85;101826.34;5074981;28;20040;-72
2023/06/03 14:15:16;;;;;;;6.40;1.20;;;;;;;24.26;24.87;101830.84;5074883;28;20035;-72
2023/06/03 14:17:43;;;;;;;3.28;1.25;;;;;;;24.28;24.57;101838.84;5075226;28;20036;-72
2023/06/03 14:20:09;;;;;;;3.72;1.50;;;;;;;24.36;24.15;101827.97;5082960;28;20028;-71
2023/06/03 14:22:34;;;;;;;4.20;1.27;;;;;;;24.38;24.69;101831.28;5095310;28;20032;-75
2023/06/03 14:24:59;;;;;;;6.70;1.65;;;;;;;24.44;24.05;101822.91;5103550;28;20039;-75
2023/06/03 14:27:25;;;;;;;6.40;1.67;;;;;;;24.67;24.52;101821.25;5083887;28;20028;-74
2023/06/03 14:29:50;;;;;;;4.95;1.40;;;;;;;24.66;24.72;101814.09;5075356;28;20032;-75
2023/06/03 14:32:15;;;;;;;8.18;1.38;;;;;;;24.59;23.47;101820.81;5074414;28;20360;-75
2023/06/03 14:34:40;;;;;;;7.03;1.23;;;;;;;24.55;23.95;101824.44;5074867;28;20197;-74
2023/06/03 14:37:06;;;;;;;4.65;1.30;;;;;;;24.44;23.51;101809.88;5075086;28;20421;-75
2023/06/03 14:39:31;;;;;;;2.95;1.33;;;;;;;24.37;23.56;101813.03;5073067;28;20053;-75
2023/06/03 14:41:57;;;;;;;3.55;1.10;;;;;;;24.49;23.68;101815.38;5075106;28;20028;-75
2023/06/03 14:44:22;;;;;;;5.05;1.30;;;;;;;24.47;23.22;101820.34;5074453;28;20432;-74
2023/06/03 14:46:47;;;;;;;5.60;1.45;;;;;;;24.55;23.89;101814.19;5074548;28;20024;-75
2023/06/03 14:49:13;;;;;;;6.65;1.30;;;;;;;24.82;24.43;101812.75;5074104;28;20024;-75
2023/06/03 14:51:38;;;;;;;4.28;1.45;;;;;;;24.80;23.21;101805.88;5074761;28;20025;-75
2023/06/03 14:54:03;;;;;;;4.78;1.20;;;;;;;24.91;22.26;101816.50;5074437;28;20020;-73
2023/06/03 14:56:29;;;;;;;8.75;2.53;;;;;;;24.97;22.40;101808.09;5074235;28;20381;-73
2023/06/03 14:58:55;;;;;;;5.47;2.50;;;;;;;25.09;23.10;101812.06;5074146;28;20039;-73
2023/06/03 15:01:21;;;;;;;4.82;1.33;;;;;;;25.05;22.89;101807.44;5081842;28;20028;-72
2023/06/03 15:03:47;;;;;;;3.55;1.50;;;;;;;25.18;22.79;101798.34;5094498;28;20082;-73
2023/06/03 15:06:12;;;;;;;5.38;1.85;;;;;;;25.12;22.17;101805.94;5088922;28;20035;-71
2023/06/03 15:08:37;;;;;;;5.38;1.17;;;;;;;25.04;22.28;101808.56;5083377;28;20051;-72
2023/06/03 15:11:03;;;;;;;4.10;1.40;;;;;;;25.03;22.10;101798.59;5075428;28;20567;-72
2023/06/03 15:13:28;;;;;;;2.75;1.30;;;;;;;25.06;21.96;101804.38;5076069;28;20035;-72
2023/06/03 15:15:54;;;;;;;7.03;1.30;;;;;;;25.05;21.27;101807.44;5086418;28;20028;-72
2023/06/03 15:18:19;;;;;;;6.50;1.57;;;;;;;25.10;20.77;101813.69;5093950;28;20047;-72
2023/06/03 15:20:46;;;;;;;5.07;1.17;;;;;;;25.14;21.76;101822.25;5089666;28;20308;-72
2023/06/03 15:23:12;;;;;;;6.20;1.38;;;;;;;25.15;22.00;101809.22;5091807;28;20038;-71
2023/06/03 15:25:38;;;;;;;5.13;1.27;;;;;;;25.34;22.24;101806.47;5093725;28;20376;-70
2023/06/03 15:28:03;;;;;;;6.32;1.70;;;;;;;25.49;22.39;101797.06;5094095;28;20035;-70
2023/06/03 15:30:29;;;;;;;6.78;1.40;;;;;;;25.42;21.68;101791.91;5093750;28;20028;-71
2023/06/03 15:32:54;;;;;;;5.97;1.45;;;;;;;25.48;21.89;101796.22;5093300;28;20379;-72
2023/06/03 15:35:20;;;;;;;3.03;1.50;;;;;;;25.51;22.34;101795.63;5093684;28;20379;-71
2023/06/03 15:37:46;;;;;;;2.90;1.30;;;;;;;25.72;23.37;101792.50;5093924;28;20161;-71
2023/06/03 15:40:11;;;;;;;3.70;1.00;;;;;;;25.97;22.31;101796.75;5092323;28;20089;-71
2023/06/03 15:42:36;;;;;;;1.17;1.00;;;;;;;26.18;20.98;101791.66;5079936;28;20036;-71
2023/06/03 15:45:03;;;;;;;2.33;1.30;;;;;;;26.71;20.45;101804.16;5073652;28;20079;-70
2023/06/03 15:47:28;;;;;;;3.83;1.15;;;;;;;27.44;20.16;101794.97;5073223;28;20024;-73
2023/06/03 15:49:54;;;;;;;2.90;1.50;;;;;;;27.94;19.42;101795.53;5073853;28;20032;-72
2023/06/03 15:52:19;;;;;;;5.13;1.35;;;;;;;28.19;18.99;101789.63;5090058;28;20412;-73
2023/06/03 15:54:44;;;;;;;6.05;2.42;;;;;;;28.28;19.03;101782.94;5076812;28;20028;-71
2023/06/03 15:57:10;;;;;;;3.50;1.43;;;;;;;28.28;19.26;101788.50;5092402;28;20426;-70
2023/06/03 15:59:35;;;;;;;5.67;1.10;;;;;;;28.08;18.86;101786.28;5091734;28;20266;-72
2023/06/03 16:02:01;;;;;;;5.57;1.20;;;;;;;27.37;19.52;101790.66;5070742;28;20725;-69
2023/06/03 16:04:26;;;;;;;3.80;0.98;;;;;;;26.67;19.94;101786.47;5072460;28;20078;-71
2023/06/03 16:06:51;;;;;;;4.20;1.33;;;;;;;26.40;20.70;101784.53;5085232;28;20466;-70
